Time;durP1;ratioP1;P1;durP2;ratioP2;P2;SDS_P1;SDS_P2;PMS_P1;PMS_P2;Temp;Humidity;BMP_temperature;BMP_pressure;BME280_temperature;BME280_humidity;BME280_pressure;Samples;Min_cycle;Max_cycle;Signal;HPM_P1;HPM_P2
2022/06/09 00:00:38;;;;;;;2.70;1.10;;;;;;;21.21;49.15;100476.38;5046859;28;20094;-82
2022/06/09 00:03:13;;;;;;;2.60;1.10;;;;;;;21.24;48.79;100480.69;5046986;28;20049;-83
2022/06/09 00:05:40;;;;;;;2.88;1.20;;;;;;;21.17;49.22;100476.91;5052898;28;20045;-82
2022/06/09 00:08:07;;;;;;;3.72;1.45;;;;;;;21.15;48.93;100479.84;5047805;28;20132;-82
2022/06/09 00:10:47;;;;;;;3.95;1.00;;;;;;;21.16;48.45;100481.56;5042477;28;20049;-83
2022/06/09 00:13:14;;;;;;;3.00;1.20;;;;;;;21.10;48.99;100476.75;5043259;28;20049;-83
2022/06/09 00:15:41;;;;;;;4.07;1.55;;;;;;;21.08;48.40;100481.63;5042707;28;20489;-82
2022/06/09 00:18:07;;;;;;;4.30;1.10;;;;;;;21.07;48.75;100477.13;5041170;28;20483;-82
2022/06/09 00:20:34;;;;;;;2.83;1.20;;;;;;;21.05;48.65;100486.63;5044360;28;20068;-82
2022/06/09 00:23:01;;;;;;;3.42;1.42;;;;;;;21.04;48.47;100485.75;5035227;28;20132;-83
2022/06/09 00:25:28;;;;;;;2.50;1.23;;;;;;;21.03;48.65;100483.16;5045162;28;20120;-83
2022/06/09 00:27:55;;;;;;;3.47;1.20;;;;;;;21.01;48.66;100494.38;5041634;28;20128;-82
2022/06/09 00:30:21;;;;;;;3.13;1.27;;;;;;;21.00;48.52;100494.59;5042572;28;20325;-82
2022/06/09 00:32:48;;;;;;;4.20;1.23;;;;;;;20.98;48.81;100489.25;5036356;28;20049;-82
2022/06/09 00:35:15;;;;;;;3.28;1.50;;;;;;;20.96;48.62;100496.84;5048572;28;20448;-82
2022/06/09 00:37:41;;;;;;;4.47;1.27;;;;;;;20.95;49.08;100492.34;5044902;28;20120;-82
2022/06/09 00:40:10;;;;;;;4.20;1.23;;;;;;;20.95;48.89;100495.09;5039000;28;20080;-82
2022/06/09 00:42:37;;;;;;;2.97;1.17;;;;;;;20.92;49.04;100500.97;5045647;28;20049;-82
2022/06/09 00:45:44;;;;;;;4.72;1.23;;;;;;;20.85;48.83;100502.72;5040543;28;20095;-82
2022/06/09 00:48:33;;;;;;;3.60;1.30;;;;;;;20.87;49.16;100508.94;4967072;28;20218;-82
2022/06/09 00:51:15;;;;;;;5.43;1.30;;;;;;;20.91;48.44;100512.22;5043794;28;20044;-82
2022/06/09 00:53:43;;;;;;;1.80;1.08;;;;;;;20.85;48.68;100506.34;5045386;28;20555;-82
2022/06/09 00:56:12;;;;;;;2.58;1.33;;;;;;;20.88;48.78;100506.00;5046439;28;20081;-83
2022/06/09 00:58:42;;;;;;;3.10;1.38;;;;;;;20.87;48.40;100515.31;5045384;28;20132;-82
2022/06/09 01:01:13;;;;;;;6.80;1.38;;;;;;;20.89;48.26;100515.13;5045163;28;20563;-82
2022/06/09 01:03:51;;;;;;;3.42;1.10;;;;;;;20.88;49.13;100518.94;5047373;28;20092;-82
2022/06/09 01:06:22;;;;;;;3.42;1.58;;;;;;;20.85;48.88;100516.53;5046842;28;20463;-82
2022/06/09 01:08:58;;;;;;;3.83;1.30;;;;;;;20.84;48.81;100523.06;5045874;28;20140;-82
2022/06/09 01:11:25;;;;;;;2.45;1.08;;;;;;;20.82;49.01;100520.50;5042745;28;20125;-82
2022/06/09 01:13:53;;;;;;;3.75;1.23;;;;;;;20.83;49.21;100521.38;5036401;28;20041;-82
2022/06/09 01:16:28;;;;;;;4.40;1.10;;;;;;;20.84;49.08;100525.81;5037698;28;20452;-82
2022/06/09 01:19:07;;;;;;;3.20;1.20;;;;;;;20.84;48.16;100534.97;5037381;28;20041;-82
2022/06/09 01:21:43;;;;;;;3.58;1.50;;;;;;;20.83;49.22;100536.03;5048155;28;20539;-82
2022/06/09 01:24:48;;;;;;;1.92;1.00;;;;;;;20.80;48.68;100546.56;5037019;28;20143;-82
2022/06/09 01:27:57;;;;;;;3.70;0.90;;;;;;;20.78;49.03;100543.09;5030438;28;20128;-82
2022/06/09 01:30:44;;;;;;;3.58;1.40;;;;;;;20.79;49.03;100544.81;5045725;28;20543;-82
2022/06/09 01:33:21;;;;;;;4.03;1.30;;;;;;;20.79;49.37;100548.44;5037391;28;20057;-82
2022/06/09 01:35:56;;;;;;;4.63;1.10;;;;;;;20.80;48.66;100546.56;5041573;28;20073;-82
2022/06/09 01:38:22;;;;;;;2.15;0.90;;;;;;;20.77;48.81;100545.00;5040233;28;20499;-82
2022/06/09 01:40:49;;;;;;;4.90;1.20;;;;;;;20.77;48.98;100549.66;5047040;28;20076;-82
2022/06/09 01:43:16;;;;;;;3.60;1.13;;;;;;;20.77;48.61;100550.50;5037366;28;20136;-82
2022/06/09 01:45:56;;;;;;;2.92;1.10;;;;;;;20.77;49.01;100556.03;5045031;28;20440;-82
2022/06/09 01:48:24;;;;;;;7.13;1.33;;;;;;;20.76;48.98;100547.94;5042967;28;20049;-82
2022/06/09 01:51:03;;;;;;;3.05;1.00;;;;;;;20.79;48.77;100555.88;5043288;28;20468;-82
2022/06/09 01:53:42;;;;;;;2.47;1.10;;;;;;;20.79;48.86;100555.88;5043569;28;20495;-82
2022/06/09 01:56:27;;;;;;;3.70;1.20;;;;;;;20.78;48.36;100559.66;5042665;28;20055;-82
2022/06/09 01:59:05;;;;;;;4.90;1.58;;;;;;;20.77;49.26;100566.22;5039759;28;20146;-83
2022/06/09 02:01:48;;;;;;;5.25;1.90;;;;;;;20.74;49.15;100561.94;5049286;28;20124;-82
2022/06/09 02:04:22;;;;;;;4.38;1.30;;;;;;;20.76;48.92;100567.25;5049392;28;20053;-82
2022/06/09 02:06:50;;;;;;;5.68;1.40;;;;;;;20.74;48.47;100564.69;5047567;28;20041;-82
2022/06/09 02:09:17;;;;;;;4.20;1.40;;;;;;;20.72;48.71;100560.38;5035995;28;20459;-82
2022/06/09 02:11:53;;;;;;;2.50;1.05;;;;;;;20.75;49.14;100566.41;5046413;28;20094;-83
2022/06/09 02:14:22;;;;;;;2.47;1.05;;;;;;;20.73;48.86;100564.84;5049770;28;20053;-82
2022/06/09 02:16:49;;;;;;;4.50;1.80;;;;;;;20.69;49.17;100567.09;5047119;28;20102;-82
2022/06/09 02:19:16;;;;;;;4.05;1.40;;;;;;;20.69;49.16;100567.09;5050001;28;20072;-82
2022/06/09 02:21:43;;;;;;;3.47;1.33;;;;;;;20.70;49.21;100573.47;5050192;28;20044;-82
2022/06/09 02:24:10;;;;;;;4.70;1.35;;;;;;;20.70;49.16;100584.50;5038601;28;20049;-85
2022/06/09 02:26:36;;;;;;;5.10;1.42;;;;;;;20.69;48.76;100591.06;5048521;28;20124;-82
2022/06/09 02:29:03;;;;;;;5.10;1.73;;;;;;;20.69;49.15;100577.25;5052548;28;20053;-82
2022/06/09 02:31:30;;;;;;;4.47;1.35;;;;;;;20.69;49.05;100593.81;5042723;28;20148;-82
2022/06/09 02:33:58;;;;;;;5.15;1.48;;;;;;;20.69;48.99;100585.53;5046302;28;20049;-83
2022/06/09 02:36:25;;;;;;;4.72;1.38;;;;;;;20.69;49.00;100591.06;5041980;28;20083;-82
2022/06/09 02:38:52;;;;;;;5.15;1.40;;;;;;;20.69;48.97;100586.41;5049353;28;20049;-82
2022/06/09 02:41:19;;;;;;;5.22;1.70;;;;;;;20.69;49.42;100596.56;5049170;28;20163;-82
2022/06/09 02:43:45;;;;;;;4.45;1.30;;;;;;;20.69;49.28;100593.81;5048166;28;20045;-81
2022/06/09 02:46:12;;;;;;;4.78;1.50;;;;;;;20.68;49.49;100589.31;5049684;28;20072;-82
2022/06/09 02:48:40;;;;;;;4.97;1.30;;;;;;;20.68;49.30;100584.66;5045228;28;20139;-82
2022/06/09 02:51:34;;;;;;;4.95;1.70;;;;;;;20.66;49.63;100581.25;5014327;28;20130;-82
2022/06/09 02:54:05;;;;;;;6.03;1.40;;;;;;;20.69;49.06;100585.53;5037544;28;20130;-82
2022/06/09 02:56:32;;;;;;;4.30;1.65;;;;;;;20.67;49.21;100588.47;5045694;28;20124;-82
2022/06/09 02:58:59;;;;;;;3.53;1.48;;;;;;;20.67;48.83;100596.75;5041390;28;20049;-82
2022/06/09 03:01:28;;;;;;;4.75;1.83;;;;;;;20.68;48.79;100584.66;5046072;28;20566;-81
2022/06/09 03:03:56;;;;;;;6.78;1.90;;;;;;;20.67;48.59;100590.38;5049910;28;20086;-82
2022/06/09 03:06:23;;;;;;;6.22;1.55;;;;;;;20.66;48.71;100597.81;5042981;28;20450;-82
2022/06/09 03:08:49;;;;;;;4.72;1.88;;;;;;;20.66;48.60;100595.03;5048426;28;20045;-82
2022/06/09 03:11:16;;;;;;;3.30;1.40;;;;;;;20.65;49.00;100596.06;5049108;28;20805;-82
2022/06/09 03:13:44;;;;;;;4.50;1.40;;;;;;;20.67;48.84;100601.44;5004087;28;20081;-83
2022/06/09 03:16:13;;;;;;;4.70;1.80;;;;;;;20.66;48.78;100605.22;5042157;28;20478;-82
2022/06/09 03:18:42;;;;;;;4.32;1.88;;;;;;;20.63;48.46;100611.06;5045591;28;20124;-82
2022/06/09 03:21:10;;;;;;;4.13;1.80;;;;;;;20.62;48.42;100615.72;5047204;28;20084;-82
2022/06/09 03:23:37;;;;;;;4.57;1.98;;;;;;;20.60;48.71;100612.25;5043676;28;20099;-82
2022/06/09 03:26:04;;;;;;;5.20;2.03;;;;;;;20.60;48.41;100614.16;5039932;28;20077;-82
2022/06/09 03:28:31;;;;;;;6.63;2.08;;;;;;;20.58;48.31;100619.88;5051045;28;20080;-82
2022/06/09 03:30:59;;;;;;;6.53;2.55;;;;;;;20.58;48.64;100624.53;5050245;28;20452;-82
2022/06/09 03:33:26;;;;;;;4.78;2.40;;;;;;;20.56;48.67;100621.94;5045711;28;20045;-82
2022/06/09 03:35:52;;;;;;;7.50;2.47;;;;;;;20.56;48.53;100621.06;5049202;28;20059;-82
2022/06/09 03:38:19;;;;;;;4.78;1.92;;;;;;;20.53;48.37;100625.03;5041899;28;20499;-82
2022/06/09 03:40:46;;;;;;;5.63;2.30;;;;;;;20.52;48.61;100623.31;5044377;28;20127;-81
2022/06/09 03:43:13;;;;;;;5.50;2.40;;;;;;;20.51;48.49;100630.72;5049121;28;20088;-82
2022/06/09 03:45:40;;;;;;;4.28;2.10;;;;;;;20.51;48.42;100627.09;5049247;28;20040;-82
2022/06/09 03:48:07;;;;;;;5.75;2.45;;;;;;;20.49;48.32;100631.94;5042906;28;20056;-82
2022/06/09 03:50:34;;;;;;;7.53;2.45;;;;;;;20.49;48.86;100637.44;5038221;28;20084;-82
2022/06/09 03:53:01;;;;;;;6.20;2.25;;;;;;;20.48;48.56;100636.59;5040776;28;20053;-82
2022/06/09 03:55:31;;;;;;;5.90;2.63;;;;;;;20.48;48.73;100632.97;5048040;28;20167;-82
2022/06/09 03:57:58;;;;;;;5.93;2.25;;;;;;;20.46;48.84;100649.69;5049039;28;20102;-82
2022/06/09 04:00:28;;;;;;;5.60;2.60;;;;;;;20.47;48.85;100647.78;5045130;28;20159;-82
2022/06/09 04:02:55;;;;;;;5.05;2.45;;;;;;;20.45;48.72;100660.88;5039611;28;20084;-82
2022/06/09 04:05:22;;;;;;;6.15;2.50;;;;;;;20.44;48.48;100659.16;5046912;28;20084;-81
2022/06/09 04:07:49;;;;;;;7.03;2.38;;;;;;;20.42;48.87;100664.00;5044843;28;20096;-80
2022/06/09 04:10:22;;;;;;;6.32;2.50;;;;;;;20.43;48.91;100673.97;5040540;28;20080;-81
2022/06/09 04:12:49;;;;;;;6.93;2.63;;;;;;;20.39;48.38;100678.97;5021924;28;20132;-80
2022/06/09 04:15:17;;;;;;;5.75;2.35;;;;;;;20.39;48.89;100683.63;5042615;28;20104;-81
2022/06/09 04:17:45;;;;;;;5.57;2.30;;;;;;;20.39;48.80;100681.75;5042559;28;20565;-81
2022/06/09 04:20:14;;;;;;;7.35;2.40;;;;;;;20.38;49.07;100680.00;5047040;28;20063;-81
2022/06/09 04:22:41;;;;;;;6.63;2.67;;;;;;;20.38;48.92;100690.19;5047104;28;20098;-81
2022/06/09 04:25:15;;;;;;;6.50;2.30;;;;;;;20.38;49.01;100687.41;5048009;28;20106;-81
2022/06/09 04:27:42;;;;;;;7.80;2.65;;;;;;;20.37;48.64;100692.06;5047783;28;20077;-81
2022/06/09 04:30:09;;;;;;;6.43;2.42;;;;;;;20.37;49.23;100694.81;5046792;28;20045;-80
2022/06/09 04:32:36;;;;;;;6.97;2.97;;;;;;;20.37;49.07;100694.81;5043302;28;20505;-81
2022/06/09 04:35:04;;;;;;;6.35;3.20;;;;;;;20.38;49.11;100696.56;5042886;28;20061;-81
2022/06/09 04:40:16;;;;;;;5.63;2.80;;;;;;;20.36;49.21;100701.38;5062695;28;20071;-80
2022/06/09 04:42:42;;;;;;;6.18;2.97;;;;;;;20.36;49.11;100695.84;5040211;28;20076;-80
2022/06/09 04:45:09;;;;;;;6.50;2.90;;;;;;;20.38;49.53;100701.22;5048884;28;20502;-81
2022/06/09 04:47:36;;;;;;;6.32;2.95;;;;;;;20.37;49.31;100705.84;5046490;28;20242;-80
2022/06/09 04:50:03;;;;;;;5.75;3.00;;;;;;;20.39;49.30;100703.81;5043463;28;20455;-80
2022/06/09 04:52:31;;;;;;;9.45;2.95;;;;;;;20.41;49.77;100714.66;5028940;28;20382;-81
2022/06/09 04:54:58;;;;;;;7.40;2.75;;;;;;;20.40;49.99;100710.19;5042574;28;20112;-81
2022/06/09 04:57:25;;;;;;;8.55;3.13;;;;;;;20.42;49.54;100710.88;5042442;28;20098;-81
2022/06/09 04:59:51;;;;;;;8.93;3.50;;;;;;;20.43;49.53;100720.84;5037386;28;20091;-80
2022/06/09 05:02:18;;;;;;;7.20;3.10;;;;;;;20.44;49.46;100719.81;5042176;28;20088;-81
2022/06/09 05:04:44;;;;;;;6.63;2.97;;;;;;;20.46;49.74;100724.16;5043657;28;20072;-81
2022/06/09 05:07:11;;;;;;;6.80;3.53;;;;;;;20.47;49.44;100728.63;5041849;28;20711;-82
2022/06/09 05:09:38;;;;;;;10.82;4.07;;;;;;;20.48;49.55;100732.25;5045304;28;20040;-80
2022/06/09 05:12:04;;;;;;;5.97;3.17;;;;;;;20.48;49.58;100724.84;5035166;28;20139;-82
2022/06/09 05:14:31;;;;;;;7.68;3.88;;;;;;;20.47;48.92;100731.41;5043657;28;20183;-82
2022/06/09 05:16:58;;;;;;;8.95;3.70;;;;;;;20.49;49.32;100734.84;5036997;28;20052;-85
2022/06/09 05:19:25;;;;;;;8.27;3.75;;;;;;;20.49;49.26;100745.03;5040718;28;20558;-84
2022/06/09 05:21:52;;;;;;;6.45;3.25;;;;;;;20.49;49.67;100740.38;5044722;28;20499;-85
2022/06/09 05:24:21;;;;;;;6.15;3.13;;;;;;;20.51;49.14;100737.41;5042958;28;20318;-85
2022/06/09 05:26:48;;;;;;;7.20;3.42;;;;;;;20.52;49.85;100742.78;5049847;28;20041;-85
2022/06/09 05:29:15;;;;;;;8.32;3.33;;;;;;;20.55;49.62;100749.00;5048831;28;20057;-84
2022/06/09 05:31:41;;;;;;;6.47;3.25;;;;;;;20.56;49.83;100746.06;5048392;28;20095;-87
2022/06/09 05:34:09;;;;;;;6.68;3.10;;;;;;;20.59;49.74;100753.16;5052226;28;20060;-89
2022/06/09 05:36:37;;;;;;;6.15;3.40;;;;;;;20.61;49.52;100759.34;5051925;28;20487;-89
2022/06/09 05:44:56;;;;;;;6.45;3.60;;;;;;;20.64;49.14;100756.25;5049869;28;20075;-83
2022/06/09 05:47:27;;;;;;;8.13;3.40;;;;;;;20.65;49.13;100764.34;5039050;28;20110;-81
2022/06/09 05:49:54;;;;;;;10.05;3.58;;;;;;;20.67;49.09;100772.47;5034989;28;20087;-77
2022/06/09 05:52:24;;;;;;;6.53;3.97;;;;;;;20.70;49.13;100778.50;5046497;28;20103;-77
2022/06/09 05:54:51;;;;;;;7.97;3.90;;;;;;;20.71;49.56;100782.97;5047914;28;20076;-77
2022/06/09 05:57:22;;;;;;;8.40;3.45;;;;;;;20.77;48.69;100786.94;5045839;28;20550;-77
2022/06/09 05:59:50;;;;;;;7.72;3.17;;;;;;;20.75;48.86;100781.63;5041794;28;20132;-78
2022/06/09 06:02:19;;;;;;;7.93;3.90;;;;;;;20.77;48.53;100787.81;5038108;28;20091;-78
2022/06/09 06:04:46;;;;;;;6.32;3.67;;;;;;;20.78;48.91;100795.06;5039823;28;20045;-78
2022/06/09 06:07:13;;;;;;;8.60;3.70;;;;;;;20.78;48.61;100800.59;5049640;28;20041;-79
2022/06/09 06:09:40;;;;;;;6.07;3.30;;;;;;;20.78;49.09;100799.72;5046823;28;20094;-78
2022/06/09 06:12:08;;;;;;;6.88;3.20;;;;;;;20.76;48.63;100799.03;5048509;28;20069;-78
2022/06/09 06:14:35;;;;;;;6.05;3.65;;;;;;;20.74;48.68;100807.50;5046047;28;20453;-78
2022/06/09 06:17:02;;;;;;;6.75;3.38;;;;;;;20.73;48.65;100813.16;5047951;28;20091;-78
2022/06/09 06:19:29;;;;;;;8.77;3.80;;;;;;;20.72;48.78;100806.78;5047516;28;20305;-77
2022/06/09 06:21:56;;;;;;;7.28;3.75;;;;;;;20.71;48.90;100813.34;5050026;28;20128;-77
2022/06/09 06:24:24;;;;;;;6.20;3.67;;;;;;;20.73;49.25;100818.69;5048370;28;20045;-77
2022/06/09 06:26:52;;;;;;;6.47;3.80;;;;;;;20.71;48.98;100818.00;5044153;28;20427;-77
2022/06/09 06:29:23;;;;;;;7.28;3.65;;;;;;;20.74;48.95;100818.53;5047718;28;20559;-77
2022/06/09 06:31:50;;;;;;;7.78;3.78;;;;;;;20.73;48.88;100819.56;5046276;28;20099;-77
2022/06/09 06:34:18;;;;;;;6.55;3.80;;;;;;;20.72;48.65;100817.81;5043481;28;20100;-78
2022/06/09 06:36:45;;;;;;;8.98;4.35;;;;;;;20.73;48.99;100826.97;5047221;28;20135;-78
2022/06/09 06:39:11;;;;;;;7.28;4.10;;;;;;;20.75;48.83;100833.19;5047828;28;20164;-78
2022/06/09 06:41:38;;;;;;;8.30;4.32;;;;;;;20.74;48.93;100837.84;5045642;28;20057;-79
2022/06/09 06:44:05;;;;;;;7.47;3.72;;;;;;;20.75;49.25;100842.34;5050559;28;20132;-78
2022/06/09 06:46:32;;;;;;;10.10;4.30;;;;;;;20.78;49.24;100849.38;5048503;28;20045;-78
2022/06/09 06:48:59;;;;;;;7.72;4.30;;;;;;;20.76;48.92;100852.31;5046533;28;20052;-78
2022/06/09 06:51:25;;;;;;;8.70;4.72;;;;;;;20.78;48.65;100849.38;5046943;28;20087;-77
2022/06/09 06:53:52;;;;;;;6.82;4.40;;;;;;;20.75;49.36;100853.38;5046293;28;20045;-78
2022/06/09 06:56:19;;;;;;;9.55;4.63;;;;;;;20.78;49.04;100858.53;5047392;28;20098;-77
2022/06/09 06:58:45;;;;;;;6.15;4.00;;;;;;;20.79;49.11;100867.69;5048996;28;20511;-77
2022/06/09 07:01:12;;;;;;;10.93;4.38;;;;;;;20.80;49.37;100864.75;5048163;28;20100;-78
2022/06/09 07:03:39;;;;;;;6.70;4.05;;;;;;;20.81;49.01;100868.38;5043627;28;20143;-78
2022/06/09 07:06:08;;;;;;;6.55;4.53;;;;;;;20.82;48.75;100873.75;5044726;28;20049;-77
2022/06/09 07:08:35;;;;;;;7.22;4.45;;;;;;;20.83;49.28;100872.72;5041626;28;20136;-78
2022/06/09 07:11:04;;;;;;;9.25;4.35;;;;;;;20.86;49.30;100885.28;5048079;28;20084;-78
2022/06/09 07:13:30;;;;;;;7.68;4.72;;;;;;;20.87;48.86;100882.38;5043695;28;20475;-78
2022/06/09 07:15:57;;;;;;;7.22;4.78;;;;;;;20.88;49.09;100895.13;5042526;28;20073;-77
2022/06/09 07:18:29;;;;;;;7.47;4.05;;;;;;;20.91;49.17;100893.94;5038084;28;20045;-78
2022/06/09 07:20:56;;;;;;;8.32;4.45;;;;;;;20.92;49.07;100898.41;5043762;28;20433;-78
2022/06/09 07:23:24;;;;;;;6.93;4.35;;;;;;;20.92;48.68;100903.91;5040222;28;20526;-78
2022/06/09 07:25:52;;;;;;;8.45;4.57;;;;;;;20.92;48.54;100903.91;5044363;28;20057;-77
2022/06/09 07:28:18;;;;;;;7.03;4.68;;;;;;;20.94;49.01;100906.53;5042434;28;20131;-78
2022/06/09 07:30:46;;;;;;;7.90;4.22;;;;;;;20.95;49.07;100916.53;5036017;28;20543;-78
2022/06/09 07:33:13;;;;;;;10.98;4.40;;;;;;;20.94;48.61;100917.56;5034809;28;20080;-78
2022/06/09 07:35:40;;;;;;;10.27;4.75;;;;;;;20.97;48.90;100914.47;5049267;28;20088;-81
2022/06/09 07:38:10;;;;;;;8.50;5.03;;;;;;;20.98;49.05;100916.22;5048228;28;20056;-78
2022/06/09 07:40:39;;;;;;;6.00;4.63;;;;;;;20.97;48.93;100917.25;5042208;28;20072;-78
2022/06/09 07:43:06;;;;;;;6.93;4.80;;;;;;;20.97;48.80;100920.00;5045676;28;20041;-78
2022/06/09 07:45:34;;;;;;;8.63;4.60;;;;;;;20.97;48.94;100925.53;5042687;28;20045;-81
2022/06/09 07:48:01;;;;;;;6.80;4.57;;;;;;;20.98;49.01;100924.50;5044498;28;20269;-79
2022/06/09 07:50:37;;;;;;;7.88;4.40;;;;;;;20.98;49.28;100925.34;5039719;28;20056;-79
2022/06/09 07:53:06;;;;;;;8.13;4.82;;;;;;;20.99;49.14;100932.59;5041261;28;20561;-79
2022/06/09 07:55:33;;;;;;;7.03;4.45;;;;;;;20.99;48.67;100929.00;5042609;28;20053;-78
2022/06/09 07:58:01;;;;;;;8.90;4.65;;;;;;;21.01;49.11;100932.41;5041740;28;20037;-80
2022/06/09 08:00:29;;;;;;;10.02;5.10;;;;;;;21.01;49.03;100935.19;5039859;28;20370;-77
2022/06/09 08:02:55;;;;;;;8.18;5.30;;;;;;;21.01;49.12;100935.19;5039801;28;20041;-78
2022/06/09 08:05:25;;;;;;;6.68;5.30;;;;;;;21.03;48.60;100942.28;5041427;28;20052;-79
2022/06/09 08:07:53;;;;;;;12.45;5.55;;;;;;;21.03;48.78;100942.28;5039504;28;20037;-78
2022/06/09 08:10:22;;;;;;;8.95;5.15;;;;;;;21.05;48.40;100951.25;5039956;28;20395;-79
2022/06/09 08:12:53;;;;;;;9.00;5.88;;;;;;;21.05;48.71;100947.63;5032532;28;20460;-78
2022/06/09 08:15:24;;;;;;;7.88;5.60;;;;;;;21.04;49.02;100955.03;5041904;28;20057;-77
2022/06/09 08:17:52;;;;;;;9.90;5.95;;;;;;;21.07;48.89;100960.25;5035871;28;20088;-79
2022/06/09 08:20:19;;;;;;;8.18;5.90;;;;;;;21.09;48.88;100962.81;5045963;28;20518;-79
2022/06/09 08:23:11;;;;;;;8.82;5.50;;;;;;;21.12;49.05;100966.13;5037781;28;20044;-79
2022/06/09 08:25:39;;;;;;;8.25;5.65;;;;;;;21.16;48.99;100967.53;5048065;28;20123;-78
2022/06/09 08:28:06;;;;;;;9.93;5.97;;;;;;;21.19;49.14;100969.97;5045673;28;20406;-78
2022/06/09 08:30:35;;;;;;;9.57;5.95;;;;;;;21.24;49.23;100978.63;5040271;28;20411;-77
2022/06/09 08:33:02;;;;;;;6.82;5.35;;;;;;;21.28;48.75;100970.84;5043241;28;20321;-77
2022/06/09 08:35:31;;;;;;;7.80;4.70;;;;;;;21.34;48.77;100974.81;5046603;28;20168;-77
2022/06/09 08:38:02;;;;;;;7.80;4.80;;;;;;;21.37;48.37;100980.88;5044746;28;20467;-77
2022/06/09 08:40:59;;;;;;;6.60;4.47;;;;;;;21.42;48.42;100986.75;5043611;28;20108;-77
2022/06/09 08:43:43;;;;;;;7.97;4.88;;;;;;;21.44;48.48;100990.22;5046221;28;20893;-77
2022/06/09 08:46:19;;;;;;;7.38;5.25;;;;;;;21.48;48.20;100994.38;5043070;28;20514;-78
2022/06/09 08:48:47;;;;;;;6.70;4.82;;;;;;;21.49;48.37;100992.50;5038599;28;20048;-78
2022/06/09 08:51:34;;;;;;;7.55;4.70;;;;;;;21.54;48.59;100996.47;5046278;28;20049;-78
2022/06/09 08:54:13;;;;;;;5.57;4.10;;;;;;;21.56;48.11;100988.00;5039583;28;20191;-77
2022/06/09 08:56:39;;;;;;;7.20;4.28;;;;;;;21.56;48.21;100993.53;5047739;28;20080;-78
2022/06/09 08:59:13;;;;;;;6.75;3.90;;;;;;;21.61;47.80;100999.41;5044660;28;20107;-78
2022/06/09 09:01:56;;;;;;;5.95;3.85;;;;;;;21.63;47.94;100998.19;5040994;28;20491;-78
2022/06/09 09:04:32;;;;;;;6.22;4.00;;;;;;;21.65;47.32;100998.03;5044666;28;20045;-78
2022/06/09 09:07:07;;;;;;;6.80;4.13;;;;;;;21.69;47.96;101004.94;5042250;28;20060;-78
2022/06/09 09:09:35;;;;;;;6.43;4.20;;;;;;;21.70;48.17;101001.13;5054400;28;20098;-78
2022/06/09 09:12:34;;;;;;;6.97;4.35;;;;;;;21.77;47.92;101001.31;5040536;28;20053;-78
2022/06/09 09:15:24;;;;;;;7.90;4.20;;;;;;;21.76;47.96;100994.91;5044661;28;20045;-78
2022/06/09 09:17:59;;;;;;;7.53;4.55;;;;;;;21.81;47.90;100997.19;5039933;28;20399;-77
2022/06/09 09:20:35;;;;;;;6.93;4.47;;;;;;;21.88;47.77;101001.84;5034842;28;20123;-77
2022/06/09 09:23:04;;;;;;;6.18;4.03;;;;;;;21.91;47.52;101001.50;5039870;28;20192;-77
2022/06/09 09:25:53;;;;;;;5.47;4.32;;;;;;;21.95;47.66;101007.56;5035546;28;20103;-78
2022/06/09 09:28:22;;;;;;;8.13;4.38;;;;;;;21.94;47.56;100998.38;5035237;28;20060;-77
2022/06/09 09:30:55;;;;;;;5.40;4.07;;;;;;;22.01;47.01;101004.13;5042377;28;20099;-77
2022/06/09 09:33:22;;;;;;;5.22;4.30;;;;;;;22.02;47.65;101011.38;5045039;28;20049;-78
2022/06/09 09:35:52;;;;;;;10.75;4.53;;;;;;;22.08;47.27;101009.81;5038725;28;20045;-77
2022/06/09 09:38:20;;;;;;;6.55;4.25;;;;;;;22.12;47.27;101019.50;5031163;28;20041;-77
2022/06/09 09:40:50;;;;;;;6.50;4.43;;;;;;;22.16;47.10;101020.88;5041742;28;20099;-77
2022/06/09 09:43:21;;;;;;;6.00;4.10;;;;;;;22.21;46.99;101021.22;5031921;28;20049;-78
2022/06/09 09:45:52;;;;;;;5.97;4.40;;;;;;;22.22;47.00;101025.72;5044706;28;20128;-78
2022/06/09 09:48:19;;;;;;;7.60;3.90;;;;;;;22.26;47.67;101014.13;5044454;28;20102;-78
2022/06/09 09:50:53;;;;;;;6.13;3.72;;;;;;;22.35;47.08;101024.16;5034973;28;20050;-78
2022/06/09 09:53:33;;;;;;;6.72;3.60;;;;;;;22.41;46.73;101033.66;5042788;28;20060;-78
2022/06/09 09:56:23;;;;;;;6.38;3.65;;;;;;;22.45;46.95;101043.34;5039351;28;20626;-78
2022/06/09 09:58:57;;;;;;;7.72;4.50;;;;;;;22.49;46.81;101041.06;5037917;28;21009;-78
2022/06/09 10:10:39;;;;;;;6.55;4.10;;;;;;;22.52;47.01;101073.94;5037844;28;20506;-78
2022/06/09 10:13:32;;;;;;;6.43;4.10;;;;;;;22.55;46.86;101080.00;5038070;28;20099;-78
2022/06/09 10:16:03;;;;;;;5.63;3.78;;;;;;;22.55;46.86;101092.97;5038154;28;20072;-78
2022/06/09 10:18:54;;;;;;;6.45;3.72;;;;;;;22.55;47.26;101093.84;5042598;28;20408;-81
2022/06/09 10:21:59;;;;;;;7.45;3.88;;;;;;;22.51;47.62;101095.22;5041360;28;20538;-84
2022/06/09 10:25:00;;;;;;;4.70;3.03;;;;;;;22.48;47.67;101089.19;5042232;28;21918;-86
2022/06/09 10:27:37;;;;;;;4.18;2.75;;;;;;;22.42;48.00;101092.63;5035818;28;20527;-85
2022/06/09 10:30:11;;;;;;;4.72;2.75;;;;;;;22.30;47.71;101087.44;5038551;28;20037;-84
2022/06/09 10:32:50;;;;;;;5.55;2.70;;;;;;;22.25;47.84;101092.63;5043594;28;20048;-83
2022/06/09 10:35:34;;;;;;;3.33;2.30;;;;;;;22.16;48.17;101101.06;5049649;28;20388;-83
2022/06/09 10:38:39;;;;;;;4.40;2.30;;;;;;;22.08;48.60;101109.38;5035540;28;20045;-82
2022/06/09 10:41:15;;;;;;;3.28;2.05;;;;;;;21.97;49.03;101105.06;4963336;28;1336231;-82
2022/06/09 10:43:45;;;;;;;3.35;2.20;;;;;;;21.93;48.75;101115.53;5039639;28;20551;-82
2022/06/09 10:46:39;;;;;;;3.28;2.20;;;;;;;21.87;49.27;101115.34;5039524;28;20480;-83
2022/06/09 10:55:31;;;;;;;3.45;2.03;;;;;;;21.77;49.34;101129.31;5045731;28;20044;-80
2022/06/09 10:58:01;;;;;;;4.35;2.33;;;;;;;21.73;49.23;101127.94;5036577;28;20615;-80
2022/06/09 11:00:40;;;;;;;4.90;2.35;;;;;;;21.77;49.84;101125.69;5036274;28;20075;-80
2022/06/09 11:03:24;;;;;;;4.00;2.47;;;;;;;21.78;49.86;101132.94;5039770;28;20407;-80
2022/06/09 11:05:56;;;;;;;3.30;2.45;;;;;;;21.75;49.99;101136.03;5042820;28;20077;-78
2022/06/09 11:08:49;;;;;;;5.47;2.60;;;;;;;21.79;50.12;101140.22;5049540;28;20463;-79
2022/06/09 11:11:22;;;;;;;4.57;2.60;;;;;;;21.81;49.73;101130.72;5042286;28;20045;-80
2022/06/09 11:14:18;;;;;;;4.30;3.20;;;;;;;21.82;49.57;101134.38;5037444;28;20102;-79
2022/06/09 11:16:51;;;;;;;5.07;2.92;;;;;;;21.85;50.04;101140.41;5004206;28;20132;-80
2022/06/09 11:19:27;;;;;;;5.72;3.40;;;;;;;21.86;49.93;101139.38;5041463;28;20076;-80
2022/06/09 11:22:03;;;;;;;4.88;3.45;;;;;;;21.93;50.40;101136.78;5040038;28;20080;-81
2022/06/09 11:24:48;;;;;;;4.15;3.47;;;;;;;21.93;49.95;101136.78;5040533;28;20053;-81
2022/06/09 11:27:35;;;;;;;5.03;3.50;;;;;;;22.00;50.94;101129.56;5045608;28;20041;-82
2022/06/09 11:30:10;;;;;;;6.00;3.38;;;;;;;22.05;50.35;101131.84;5048921;28;20622;-83
2022/06/09 11:33:04;;;;;;;4.90;3.42;;;;;;;22.12;50.26;101131.00;5038869;28;20136;-83
2022/06/09 11:35:59;;;;;;;4.88;3.58;;;;;;;22.12;50.15;101122.69;5047451;28;20110;-86
2022/06/09 11:38:43;;;;;;;5.78;3.40;;;;;;;22.20;50.60;101125.47;5044222;28;20215;-85
2022/06/09 11:41:39;;;;;;;3.70;3.00;;;;;;;22.28;50.85;101125.47;5046687;28;20073;-85
2022/06/09 11:44:24;;;;;;;4.95;3.45;;;;;;;22.34;49.62;101141.38;5046068;28;20044;-83
2022/06/09 11:46:53;;;;;;;4.30;2.60;;;;;;;22.37;49.43;101148.47;5039390;28;20507;-83
2022/06/09 11:49:29;;;;;;;4.20;3.08;;;;;;;22.46;49.01;101160.44;5046345;28;20045;-88
2022/06/09 11:52:01;;;;;;;5.88;3.00;;;;;;;22.49;48.55;101146.22;5050941;28;20041;-87
2022/06/09 11:54:55;;;;;;;4.85;2.80;;;;;;;22.48;48.56;101150.06;5048165;28;20129;-86
2022/06/09 11:57:34;;;;;;;7.07;2.95;;;;;;;22.50;48.22;101159.88;5041252;28;20076;-87
2022/06/09 12:00:25;;;;;;;5.68;2.90;;;;;;;22.52;48.58;101157.81;5050865;28;20076;-86
2022/06/09 12:03:07;;;;;;;6.45;3.20;;;;;;;22.52;48.10;101154.19;5047191;28;20110;-83
2022/06/09 12:05:58;;;;;;;5.60;2.80;;;;;;;22.47;48.43;101160.25;5044882;28;20136;-85
2022/06/09 12:08:34;;;;;;;4.35;3.10;;;;;;;22.50;48.72;101170.09;5045045;28;20487;-83
2022/06/09 12:11:06;;;;;;;5.18;2.92;;;;;;;22.49;48.61;101169.22;5040992;28;20059;-82